createdAt,value
2018-08-10T00:00:07.117Z,28.30
2018-08-10T00:02:35.543Z,28.30
2018-08-10T00:05:04.428Z,28.20
2018-08-10T00:07:32.499Z,28.20
2018-08-10T00:10:00.823Z,28.20
2018-08-10T00:12:29.050Z,28.30
2018-08-10T00:14:57.345Z,28.20
2018-08-10T00:17:25.501Z,28.20
2018-08-10T00:19:53.683Z,28.10
2018-08-10T00:22:21.870Z,28.10
2018-08-10T00:24:50.013Z,28.10
2018-08-10T00:27:18.199Z,28.10
2018-08-10T00:29:46.412Z,28.10
2018-08-10T00:32:14.581Z,28.00
2018-08-10T00:34:42.652Z,28.10
2018-08-10T00:37:10.747Z,28.20
2018-08-10T00:39:38.952Z,28.20
2018-08-10T00:42:07.072Z,28.20
2018-08-10T00:44:35.201Z,28.20
2018-08-10T00:47:03.308Z,28.20
2018-08-10T00:49:31.545Z,28.20
2018-08-10T00:51:59.627Z,28.20
2018-08-10T00:54:27.738Z,28.30
2018-08-10T00:56:55.879Z,28.30
2018-08-10T00:59:24.038Z,28.30
2018-08-10T01:01:52.134Z,28.30
2018-08-10T01:04:20.279Z,28.30
2018-08-10T01:06:48.430Z,28.30
2018-08-10T01:09:16.732Z,28.30
2018-08-10T01:11:45.052Z,28.10
2018-08-10T01:14:13.133Z,28.20
2018-08-10T01:16:41.313Z,28.20
2018-08-10T01:19:09.560Z,28.20
2018-08-10T01:21:37.628Z,28.30
2018-08-10T01:24:05.782Z,28.30
2018-08-10T01:26:33.882Z,28.30
2018-08-10T01:29:02.044Z,28.30
2018-08-10T01:31:30.145Z,28.40
2018-08-10T01:33:58.328Z,28.40
2018-08-10T01:36:26.425Z,28.40
2018-08-10T01:38:54.564Z,28.40
2018-08-10T01:41:22.704Z,28.30
2018-08-10T01:43:50.880Z,28.40
2018-08-10T01:46:19.099Z,28.40
2018-08-10T01:48:47.241Z,28.40
2018-08-10T01:51:15.312Z,28.40
2018-08-10T01:53:43.377Z,28.50
2018-08-10T01:56:11.417Z,28.40
2018-08-10T01:58:39.519Z,28.50
2018-08-10T02:01:07.587Z,28.40
2018-08-10T02:03:35.673Z,28.60
2018-08-10T02:06:03.732Z,28.50
2018-08-10T02:08:31.801Z,28.50
2018-08-10T02:10:59.864Z,28.50
2018-08-10T02:13:27.920Z,28.50
2018-08-10T02:15:55.991Z,28.40
2018-08-10T02:18:24.083Z,28.40
2018-08-10T02:20:52.209Z,28.50
2018-08-10T02:23:20.307Z,28.40
2018-08-10T02:25:48.482Z,28.40
2018-08-10T02:28:16.585Z,28.50
2018-08-10T02:30:44.682Z,28.60
2018-08-10T02:33:12.796Z,28.60
2018-08-10T02:35:40.884Z,28.60
2018-08-10T02:38:08.948Z,28.60
2018-08-10T02:40:37.016Z,28.60
2018-08-10T02:43:05.127Z,28.60
2018-08-10T02:45:33.283Z,28.60
2018-08-10T02:48:01.442Z,28.60
2018-08-10T02:50:29.506Z,28.60
2018-08-10T02:52:57.573Z,28.70
2018-08-10T02:55:25.659Z,28.60
2018-08-10T02:57:53.744Z,28.70
2018-08-10T03:00:21.870Z,28.60
2018-08-10T03:02:50.045Z,28.40
2018-08-10T03:05:18.179Z,28.40
2018-08-10T03:07:46.293Z,28.40
2018-08-10T03:10:14.552Z,28.40
2018-08-10T03:12:42.648Z,28.50
2018-08-10T03:15:12.183Z,28.50
2018-08-10T03:17:40.393Z,28.50
2018-08-10T03:20:08.761Z,28.50
2018-08-10T03:22:36.838Z,28.30
2018-08-10T03:25:05.345Z,28.40
2018-08-10T03:27:33.446Z,28.50
2018-08-10T03:30:01.540Z,28.40
2018-08-10T03:32:29.620Z,28.40
2018-08-10T03:34:57.692Z,28.40
2018-08-10T03:37:25.775Z,28.50
2018-08-10T03:39:53.869Z,28.50
2018-08-10T03:42:22.017Z,28.50
2018-08-10T03:44:50.193Z,28.60
2018-08-10T03:47:18.372Z,28.50
2018-08-10T03:49:46.534Z,28.50
2018-08-10T03:52:14.618Z,28.50
2018-08-10T03:54:42.749Z,28.50
2018-08-10T03:57:10.823Z,28.50
2018-08-10T03:59:38.929Z,28.50
2018-08-10T04:02:06.988Z,28.40
2018-08-10T04:04:35.088Z,28.40
2018-08-10T04:07:03.172Z,28.40
2018-08-10T04:09:31.264Z,28.30
2018-08-10T04:11:59.337Z,28.40
2018-08-10T04:14:27.440Z,28.40
2018-08-10T04:16:55.539Z,28.40
2018-08-10T04:19:23.628Z,28.40
2018-08-10T04:21:51.788Z,28.40
2018-08-10T04:24:19.944Z,28.40
2018-08-10T04:26:48.078Z,28.30
2018-08-10T04:29:16.424Z,28.40
2018-08-10T04:31:44.500Z,28.30
2018-08-10T04:34:12.568Z,28.40
2018-08-10T04:36:40.804Z,28.30
2018-08-10T04:39:10.934Z,28.30
2018-08-10T04:41:39.024Z,28.30
2018-08-10T04:44:07.140Z,28.30
2018-08-10T04:46:35.212Z,28.30
2018-08-10T04:49:03.298Z,28.30
2018-08-10T04:51:31.489Z,28.30
2018-08-10T04:53:59.809Z,28.30
2018-08-10T04:56:27.860Z,28.30
2018-08-10T04:58:55.945Z,28.20
2018-08-10T05:01:24.000Z,28.20
2018-08-10T05:03:52.140Z,28.20
2018-08-10T05:06:20.339Z,28.20
2018-08-10T05:08:48.504Z,28.20
2018-08-10T05:11:16.591Z,28.20
2018-08-10T05:13:44.864Z,28.30
2018-08-10T05:16:13.017Z,28.20
2018-08-10T05:18:41.316Z,28.20
2018-08-10T05:21:09.384Z,28.20
2018-08-10T05:23:37.463Z,28.20
2018-08-10T05:26:05.752Z,28.20
2018-08-10T05:28:33.873Z,28.20
2018-08-10T05:31:01.930Z,28.20
2018-08-10T05:33:30.718Z,28.10
2018-08-10T05:35:58.784Z,28.10
2018-08-10T05:38:26.912Z,28.00
2018-08-10T05:40:55.020Z,28.10
2018-08-10T05:43:23.144Z,28.00
2018-08-10T05:45:51.308Z,28.10
2018-08-10T05:48:19.451Z,28.00
2018-08-10T05:50:47.620Z,28.00
2018-08-10T05:53:15.739Z,28.00
2018-08-10T05:55:43.856Z,28.00
2018-08-10T05:58:11.924Z,28.00
2018-08-10T06:00:40.077Z,28.00
2018-08-10T06:03:08.075Z,28.00
2018-08-10T06:05:36.200Z,28.00
2018-08-10T06:08:04.313Z,27.90
2018-08-10T06:10:32.389Z,27.80
2018-08-10T06:13:00.530Z,27.80
2018-08-10T06:15:28.695Z,27.70
2018-08-10T06:17:56.727Z,27.70
2018-08-10T06:20:24.824Z,27.70
2018-08-10T06:22:52.970Z,27.80
2018-08-10T06:25:21.125Z,27.80
2018-08-10T06:27:49.339Z,27.90
2018-08-10T06:30:17.484Z,27.70
2018-08-10T06:32:45.610Z,27.80
2018-08-10T06:35:13.693Z,27.80
2018-08-10T06:37:41.776Z,27.80
2018-08-10T06:40:09.848Z,27.80
2018-08-10T06:42:37.937Z,27.70
2018-08-10T06:45:06.488Z,27.80
2018-08-10T06:47:34.444Z,27.80
2018-08-10T06:50:02.531Z,27.80
2018-08-10T06:52:30.589Z,27.80
2018-08-10T06:54:58.675Z,27.80
2018-08-10T06:57:26.776Z,27.80
2018-08-10T06:59:54.989Z,27.80
2018-08-10T07:02:23.336Z,27.80
2018-08-10T07:04:51.599Z,27.80
2018-08-10T07:07:19.833Z,27.80
2018-08-10T07:09:48.049Z,27.80
2018-08-10T07:12:16.215Z,27.50
2018-08-10T07:14:44.582Z,27.60
2018-08-10T07:17:12.637Z,27.70
2018-08-10T07:19:40.732Z,27.70
2018-08-10T07:22:08.820Z,27.60
2018-08-10T07:24:37.001Z,27.70
2018-08-10T07:27:05.210Z,27.70
2018-08-10T07:29:33.316Z,27.80
2018-08-10T07:32:01.456Z,27.80
2018-08-10T07:34:29.532Z,27.80
2018-08-10T07:36:57.604Z,27.90
2018-08-10T07:39:25.744Z,27.80
2018-08-10T07:41:53.887Z,27.80
2018-08-10T07:44:22.127Z,27.70
2018-08-10T07:46:50.252Z,27.80
2018-08-10T07:49:18.401Z,27.80
2018-08-10T07:51:46.707Z,27.90
2018-08-10T07:54:14.836Z,27.80
2018-08-10T07:56:42.918Z,27.80
2018-08-10T07:59:11.105Z,27.70
2018-08-10T08:01:39.268Z,27.80
2018-08-10T08:04:08.087Z,27.80
2018-08-10T08:06:36.369Z,27.80
2018-08-10T08:09:07.271Z,27.80
2018-08-10T08:11:35.452Z,27.80
2018-08-10T08:14:03.913Z,27.80
2018-08-10T08:16:32.064Z,27.80
2018-08-10T08:19:00.117Z,27.80
2018-08-10T08:21:28.217Z,27.70
2018-08-10T08:23:56.373Z,27.80
2018-08-10T08:26:24.472Z,27.70
2018-08-10T08:28:52.600Z,27.80
2018-08-10T08:31:20.748Z,27.80
2018-08-10T08:34:00.405Z,27.70
2018-08-10T08:36:28.488Z,27.80
2018-08-10T08:41:06.898Z,27.80
2018-08-10T08:45:53.491Z,27.80
2018-08-10T08:48:21.913Z,27.80
2018-08-10T08:50:51.576Z,27.70
2018-08-10T08:53:19.728Z,27.70
2018-08-10T08:55:49.593Z,27.70
2018-08-10T08:58:17.860Z,27.70
2018-08-10T09:00:46.190Z,27.70
2018-08-10T09:03:26.623Z,27.70
2018-08-10T09:05:55.223Z,27.80
2018-08-10T09:08:23.384Z,27.80
2018-08-10T09:10:52.571Z,27.80
2018-08-10T09:13:20.718Z,27.80
2018-08-10T09:15:48.973Z,27.80
2018-08-10T09:18:17.165Z,27.80
2018-08-10T09:20:45.272Z,27.80
2018-08-10T09:23:13.425Z,27.80
2018-08-10T09:25:41.512Z,27.80
2018-08-10T09:28:09.643Z,27.80
2018-08-10T09:30:37.714Z,27.80
2018-08-10T09:33:06.034Z,27.80
2018-08-10T09:35:34.139Z,27.80
2018-08-10T09:38:02.325Z,27.80
2018-08-10T09:40:30.416Z,27.90
2018-08-10T09:42:58.517Z,27.90
2018-08-10T09:45:26.711Z,27.90
2018-08-10T09:47:54.848Z,27.90
2018-08-10T09:50:29.813Z,27.90
2018-08-10T09:53:00.704Z,27.70
2018-08-10T09:55:44.389Z,27.80
2018-08-10T09:58:16.637Z,27.70
2018-08-10T10:00:50.322Z,27.80
2018-08-10T10:03:19.803Z,27.90
2018-08-10T10:05:48.851Z,27.90
2018-08-10T10:08:17.514Z,27.90
2018-08-10T10:10:45.678Z,27.80
2018-08-10T10:13:13.750Z,27.80
2018-08-10T10:15:42.283Z,27.90
2018-08-10T10:18:11.560Z,27.80
2018-08-10T10:20:39.681Z,27.80
2018-08-10T10:23:07.912Z,27.80
2018-08-10T10:25:36.242Z,27.80
2018-08-10T10:28:04.344Z,27.90
2018-08-10T10:30:32.457Z,27.90
2018-08-10T10:33:00.579Z,27.90
2018-08-10T10:35:28.805Z,27.90
2018-08-10T10:37:56.924Z,27.90
2018-08-10T10:40:25.046Z,27.90
2018-08-10T10:42:53.280Z,27.90
2018-08-10T10:45:21.363Z,27.90
2018-08-10T10:47:49.576Z,27.90
2018-08-10T10:50:18.517Z,27.80
2018-08-10T10:52:46.723Z,27.80
2018-08-10T10:55:15.008Z,27.80
2018-08-10T10:57:43.662Z,27.80
2018-08-10T11:00:14.892Z,27.90
2018-08-10T11:02:42.964Z,27.90
2018-08-10T11:05:11.037Z,27.80
2018-08-10T11:07:39.203Z,27.80
2018-08-10T11:10:08.805Z,27.80
2018-08-10T11:12:37.405Z,27.90
2018-08-10T11:15:05.825Z,27.90
2018-08-10T11:17:34.113Z,27.90
2018-08-10T11:20:02.330Z,28.00
2018-08-10T11:22:30.377Z,28.00
2018-08-10T11:24:58.568Z,28.00
2018-08-10T11:27:26.655Z,28.00
2018-08-10T11:29:54.725Z,28.00
2018-08-10T11:32:22.842Z,28.00
2018-08-10T11:34:51.047Z,28.00
2018-08-10T11:37:19.228Z,28.00
2018-08-10T11:39:47.400Z,28.00
2018-08-10T11:42:15.576Z,28.10
2018-08-10T11:44:43.752Z,28.10
2018-08-10T11:47:11.840Z,28.00
2018-08-10T11:49:39.993Z,28.10
2018-08-10T11:52:08.185Z,28.00
2018-08-10T11:54:36.247Z,27.90
2018-08-10T11:57:04.401Z,28.00
2018-08-10T12:00:49.724Z,28.10
2018-08-10T12:03:17.908Z,28.00
2018-08-10T12:05:46.076Z,28.10
2018-08-10T12:08:14.097Z,28.00
2018-08-10T12:10:42.219Z,28.00
2018-08-10T12:13:10.296Z,28.00
2018-08-10T12:15:38.385Z,27.90
2018-08-10T12:18:06.536Z,28.00
2018-08-10T12:20:34.608Z,28.00
2018-08-10T12:23:02.707Z,28.00
2018-08-10T12:25:30.780Z,28.00
2018-08-10T12:27:58.872Z,28.00
2018-08-10T12:30:27.049Z,27.90
2018-08-10T12:32:55.200Z,27.90
2018-08-10T12:35:23.358Z,27.90
2018-08-10T12:37:51.453Z,27.90
2018-08-10T12:40:19.591Z,27.90
2018-08-10T12:42:47.755Z,28.00
2018-08-10T12:45:15.888Z,27.90
2018-08-10T12:47:44.132Z,28.00
2018-08-10T12:50:12.081Z,27.90
2018-08-10T12:52:40.493Z,27.90
2018-08-10T12:55:08.742Z,28.00
2018-08-10T12:57:36.932Z,27.90
2018-08-10T13:00:07.400Z,27.90
2018-08-10T13:02:35.622Z,27.90
2018-08-10T13:05:03.768Z,28.00
2018-08-10T13:07:31.933Z,28.00
2018-08-10T13:09:59.973Z,27.90
2018-08-10T13:12:28.208Z,28.10
2018-08-10T13:14:56.301Z,28.10
2018-08-10T13:17:24.375Z,28.10
2018-08-10T13:19:52.468Z,28.20
2018-08-10T13:22:20.624Z,28.20
2018-08-10T13:24:48.791Z,28.20
2018-08-10T13:27:17.041Z,28.20
2018-08-10T13:29:45.748Z,28.30
2018-08-10T13:32:13.865Z,28.20
2018-08-10T13:34:42.076Z,28.10
2018-08-10T13:37:10.164Z,28.20
2018-08-10T13:39:38.248Z,28.30
2018-08-10T13:42:06.339Z,28.20
2018-08-10T13:44:34.521Z,28.30
2018-08-10T13:47:02.570Z,28.30
2018-08-10T13:49:30.793Z,28.20
2018-08-10T13:51:58.860Z,28.30
2018-08-10T13:54:27.096Z,28.20
2018-08-10T13:56:55.152Z,28.10
2018-08-10T13:59:23.256Z,28.20
2018-08-10T14:01:51.409Z,28.20
2018-08-10T14:04:19.741Z,28.20
2018-08-10T14:06:48.100Z,28.20
2018-08-10T14:09:16.220Z,28.10
2018-08-10T14:11:44.420Z,28.20
2018-08-10T14:14:12.482Z,28.20
2018-08-10T14:16:40.535Z,28.10
2018-08-10T14:19:08.592Z,28.20
2018-08-10T14:21:36.704Z,28.20
2018-08-10T14:24:04.973Z,28.10
2018-08-10T14:26:33.019Z,28.00
2018-08-10T14:29:01.108Z,28.00
2018-08-10T14:31:29.366Z,27.90
2018-08-10T14:33:57.465Z,27.90
2018-08-10T14:36:25.604Z,27.90
2018-08-10T14:38:53.844Z,27.90
2018-08-10T14:41:22.268Z,27.90
2018-08-10T14:43:51.422Z,27.90
2018-08-10T14:46:19.568Z,28.00
2018-08-10T14:48:47.721Z,28.00
2018-08-10T14:51:15.943Z,28.00
2018-08-10T14:53:44.227Z,28.00
2018-08-10T14:56:12.257Z,28.00
2018-08-10T14:58:40.353Z,28.00
2018-08-10T15:01:08.408Z,28.00
2018-08-10T15:03:36.507Z,27.90
2018-08-10T15:06:04.684Z,27.90
2018-08-10T15:08:32.769Z,27.80
2018-08-10T15:11:00.875Z,27.80
2018-08-10T15:13:29.000Z,27.90
2018-08-10T15:15:57.109Z,27.90
2018-08-10T15:18:25.234Z,27.80
2018-08-10T15:20:53.459Z,27.90
2018-08-10T15:23:21.576Z,27.80
2018-08-10T15:25:49.717Z,27.90
2018-08-10T15:28:18.052Z,27.90
2018-08-10T15:30:46.247Z,27.90
2018-08-10T15:33:14.324Z,27.90
2018-08-10T15:35:42.400Z,27.90
2018-08-10T15:38:10.509Z,27.80
2018-08-10T15:40:38.572Z,27.80
2018-08-10T15:43:06.661Z,27.90
2018-08-10T15:45:34.816Z,27.80
2018-08-10T15:48:02.894Z,27.80
2018-08-10T15:50:31.085Z,27.80
2018-08-10T15:52:59.128Z,27.80
2018-08-10T15:55:27.204Z,27.70
2018-08-10T15:57:55.754Z,27.70
2018-08-10T16:00:24.909Z,27.80
2018-08-10T16:02:53.066Z,27.70
2018-08-10T16:05:21.257Z,27.70
2018-08-10T16:07:49.367Z,27.70
2018-08-10T16:10:17.604Z,27.70
2018-08-10T16:12:45.796Z,27.80
2018-08-10T16:15:15.179Z,27.70
2018-08-10T16:17:43.324Z,27.70
2018-08-10T16:20:13.204Z,27.70
2018-08-10T16:22:41.324Z,27.60
2018-08-10T16:25:10.751Z,27.70
2018-08-10T16:27:39.176Z,27.80
2018-08-10T16:30:09.076Z,27.80
2018-08-10T16:32:37.469Z,27.90
2018-08-10T16:35:06.647Z,27.90
2018-08-10T16:37:34.795Z,27.90
2018-08-10T16:40:03.116Z,27.80
2018-08-10T16:42:31.187Z,27.80
2018-08-10T16:44:59.273Z,27.90
2018-08-10T16:47:27.473Z,27.90
2018-08-10T16:49:55.658Z,27.90
2018-08-10T16:52:23.768Z,27.80
2018-08-10T16:54:51.901Z,27.70
2018-08-10T16:57:20.068Z,27.70
2018-08-10T16:59:48.318Z,27.70
2018-08-10T17:02:16.517Z,27.80
2018-08-10T17:04:44.575Z,27.90
2018-08-10T17:07:12.721Z,27.90
2018-08-10T17:09:40.782Z,28.00
2018-08-10T17:12:09.275Z,27.90
2018-08-10T17:14:37.385Z,27.90
2018-08-10T17:17:05.508Z,27.90
2018-08-10T17:19:33.836Z,27.90
2018-08-10T17:22:01.912Z,28.00
2018-08-10T17:24:30.036Z,28.00
2018-08-10T17:26:58.108Z,28.00
2018-08-10T17:29:26.192Z,28.00
2018-08-10T17:31:54.295Z,28.00
2018-08-10T17:34:22.684Z,28.00
2018-08-10T17:36:50.866Z,27.90
2018-08-10T17:39:19.045Z,27.90
2018-08-10T17:41:47.101Z,28.00
2018-08-10T17:44:15.179Z,28.00
2018-08-10T17:46:43.318Z,28.00
2018-08-10T17:49:11.360Z,27.90
2018-08-10T17:51:39.464Z,28.00
2018-08-10T17:54:07.598Z,28.00
2018-08-10T17:56:35.755Z,27.90
2018-08-10T17:59:03.932Z,28.00
2018-08-10T18:01:31.983Z,28.00
2018-08-10T18:04:00.098Z,28.00
2018-08-10T18:06:28.170Z,28.00
2018-08-10T18:08:56.297Z,27.90
2018-08-10T18:11:24.427Z,28.00
2018-08-10T18:13:52.582Z,28.00
2018-08-10T18:16:20.701Z,28.00
2018-08-10T18:18:48.944Z,28.00
2018-08-10T18:21:17.185Z,27.90
2018-08-10T18:23:45.252Z,27.90
2018-08-10T18:26:13.344Z,27.90
2018-08-10T18:28:41.412Z,27.90
2018-08-10T18:31:09.537Z,27.90
2018-08-10T18:33:37.627Z,27.90
2018-08-10T18:36:05.717Z,27.90
2018-08-10T18:38:33.842Z,27.90
2018-08-10T18:41:02.378Z,27.90
2018-08-10T18:43:30.492Z,27.90
2018-08-10T18:45:58.632Z,27.90
2018-08-10T18:48:26.724Z,27.90
2018-08-10T18:50:54.848Z,27.90
2018-08-10T18:53:22.955Z,27.90
2018-08-10T18:55:51.036Z,27.80
2018-08-10T18:58:19.129Z,27.80
2018-08-10T19:00:47.366Z,27.80
2018-08-10T19:03:15.454Z,27.80
2018-08-10T19:05:43.544Z,27.80
2018-08-10T19:08:11.660Z,27.80
2018-08-10T19:10:39.792Z,27.80
2018-08-10T19:13:07.933Z,27.80
2018-08-10T19:15:36.017Z,27.80
2018-08-10T19:18:05.244Z,27.80
2018-08-10T19:20:33.320Z,27.80
2018-08-10T19:23:01.411Z,27.70
2018-08-10T19:25:29.502Z,27.80
2018-08-10T19:27:57.604Z,27.70
2018-08-10T19:30:25.718Z,27.70
2018-08-10T19:32:53.884Z,27.70
2018-08-10T19:35:21.992Z,27.70
2018-08-10T19:37:50.148Z,27.70
2018-08-10T19:40:19.356Z,27.70
2018-08-10T19:42:47.585Z,27.70
2018-08-10T19:45:16.360Z,27.70
2018-08-10T19:47:44.698Z,27.70
2018-08-10T19:50:14.164Z,27.60
2018-08-10T19:52:42.276Z,27.70
2018-08-10T19:55:11.876Z,27.70
2018-08-10T19:57:40.249Z,27.60
2018-08-10T20:00:10.252Z,27.60
2018-08-10T20:02:38.383Z,27.60
2018-08-10T20:05:06.984Z,27.60
2018-08-10T20:07:35.180Z,27.60
2018-08-10T20:10:03.565Z,27.60
2018-08-10T20:12:31.652Z,27.60
2018-08-10T20:14:59.742Z,27.60
2018-08-10T20:17:27.841Z,27.50
2018-08-10T20:19:55.924Z,27.50
2018-08-10T20:22:24.142Z,27.50
2018-08-10T20:24:52.290Z,27.50
2018-08-10T20:27:20.388Z,27.50
2018-08-10T20:29:48.564Z,27.50
2018-08-10T20:32:16.807Z,27.40
2018-08-10T20:34:44.933Z,27.40
2018-08-10T20:37:13.047Z,27.40
2018-08-10T20:39:41.154Z,27.30
2018-08-10T20:42:09.312Z,27.30
2018-08-10T20:44:37.445Z,27.30
2018-08-10T20:47:05.569Z,27.30
2018-08-10T20:49:33.656Z,27.30
2018-08-10T20:52:01.782Z,27.30
2018-08-10T20:54:29.877Z,27.30
2018-08-10T20:56:58.077Z,27.30
2018-08-10T20:59:26.144Z,27.30
2018-08-10T21:01:54.284Z,27.30
2018-08-10T21:04:22.471Z,27.30
2018-08-10T21:06:50.620Z,27.20
2018-08-10T21:09:18.717Z,27.20
2018-08-10T21:11:46.804Z,27.20
2018-08-10T21:14:14.881Z,27.20
2018-08-10T21:16:42.956Z,27.20
2018-08-10T21:19:11.073Z,27.20
2018-08-10T21:21:39.107Z,27.20
2018-08-10T21:24:07.185Z,27.20
2018-08-10T21:26:35.389Z,27.10
2018-08-10T21:29:03.432Z,27.10
2018-08-10T21:31:31.536Z,27.10
2018-08-10T21:33:59.635Z,27.00
2018-08-10T21:36:27.785Z,27.00
2018-08-10T21:38:55.852Z,27.00
2018-08-10T21:41:24.047Z,27.00
2018-08-10T21:43:52.137Z,26.90
2018-08-10T21:46:20.273Z,26.90
2018-08-10T21:48:48.413Z,26.90
2018-08-10T21:51:16.558Z,26.80
2018-08-10T21:53:44.848Z,26.90
2018-08-10T21:56:12.908Z,26.90
2018-08-10T21:58:40.973Z,26.80
2018-08-10T22:01:09.136Z,26.80
2018-08-10T22:03:37.267Z,26.80
2018-08-10T22:06:05.596Z,26.80
2018-08-10T22:08:33.700Z,26.90
2018-08-10T22:11:01.924Z,26.90
2018-08-10T22:13:35.472Z,26.90
2018-08-10T22:16:09.045Z,26.90
2018-08-10T22:18:42.591Z,26.90
2018-08-10T22:21:10.748Z,26.80
2018-08-10T22:23:38.939Z,26.80
2018-08-10T22:26:07.056Z,26.80
2018-08-10T22:28:35.192Z,26.80
2018-08-10T22:31:03.286Z,26.70
2018-08-10T22:33:31.502Z,26.70
2018-08-10T22:35:59.588Z,26.70
2018-08-10T22:38:27.665Z,26.70
2018-08-10T22:40:55.799Z,26.70
2018-08-10T22:43:23.908Z,26.70
2018-08-10T22:45:52.060Z,26.70
2018-08-10T22:48:20.190Z,26.70
2018-08-10T22:50:48.377Z,26.70
2018-08-10T22:53:16.580Z,26.70
2018-08-10T22:55:44.719Z,26.70
2018-08-10T22:58:12.774Z,26.70
2018-08-10T23:00:41.387Z,26.60
2018-08-10T23:03:09.655Z,26.60
2018-08-10T23:05:37.747Z,26.60
2018-08-10T23:08:05.821Z,26.60
2018-08-10T23:10:33.892Z,26.60
2018-08-10T23:13:01.979Z,26.50
2018-08-10T23:15:30.061Z,26.50
2018-08-10T23:17:58.415Z,26.50
2018-08-10T23:20:26.512Z,26.40
2018-08-10T23:22:54.623Z,26.40
2018-08-10T23:25:23.006Z,26.40
2018-08-10T23:27:51.112Z,26.40
2018-08-10T23:30:19.208Z,26.40
2018-08-10T23:32:47.370Z,26.40
2018-08-10T23:35:15.436Z,26.40
2018-08-10T23:37:43.516Z,26.40
2018-08-10T23:40:15.093Z,26.30
2018-08-10T23:42:44.051Z,26.40
2018-08-10T23:45:13.092Z,26.40
2018-08-10T23:47:42.012Z,26.40
2018-08-10T23:50:12.865Z,26.30
2018-08-10T23:52:41.339Z,26.30
2018-08-10T23:55:10.593Z,26.30
2018-08-10T23:57:39.659Z,26.20
